Time;durP1;ratioP1;P1;durP2;ratioP2;P2;SDS_P1;SDS_P2;PMS_P1;PMS_P2;Temp;Humidity;BMP_temperature;BMP_pressure;BME280_temperature;BME280_humidity;BME280_pressure;Samples;Min_cycle;Max_cycle;Signal;HPM_P1;HPM_P2
2023/10/10 00:01:48;;;;;;;;;;;;;;;;;;5075220;28;20334;-71
2023/10/10 00:04:19;;;;;;;;;;;;;;;;;;5074477;28;20415;-71
2023/10/10 00:06:45;;;;;;;;;;;;;;;;;;5074913;28;20008;-71
2023/10/10 00:09:11;;;;;;;;;;;;;;;;;;5074826;28;19940;-71
2023/10/10 00:11:42;;;;;;;;;;;;;;;;;;5074734;28;19954;-71
2023/10/10 00:14:17;;;;;;;;;;;;;;;;;;5073613;28;19908;-71
2023/10/10 00:16:43;;;;;;;;;;;;;;;;;;5073016;28;19909;-71
2023/10/10 00:19:18;;;;;;;;;;;;;;;;;;5073271;28;19913;-71
2023/10/10 00:21:44;;;;;;;;;;;;;;;;;;5072755;28;20291;-71
2023/10/10 00:24:12;;;;;;;;;;;;;;;;;;5073414;28;20432;-71
2023/10/10 00:26:40;;;;;;;;;;;;;;;;;;5074468;28;19913;-71
2023/10/10 00:29:06;;;;;;;;;;;;;;;;;;5066193;28;20328;-71
2023/10/10 00:31:33;;;;;;;;;;;;;;;;;;5054277;28;19916;-71
2023/10/10 00:33:59;;;;;;;;;;;;;;;;;;5053288;28;19916;-71
2023/10/10 00:36:33;;;;;;;;;;;;;;;;;;5053649;28;19909;-72
2023/10/10 00:39:52;;;;;;;;;;;;;;;;;;5054028;28;19932;-72
2023/10/10 00:41:54;;;;;;;;;;;;;;;;;;5049979;28;20388;-71
2023/10/10 00:44:21;;;;;;;;;;;;;;;;;;5053324;28;19941;-72
2023/10/10 00:46:51;;;;;;;;;;;;;;;;;;5053996;28;19909;-71
2023/10/10 00:49:17;;;;;;;;;;;;;;;;;;5053488;28;19932;-71
2023/10/10 00:51:46;;;;;;;;;;;;;;;;;;5053706;28;19913;-71
2023/10/10 00:54:25;;;;;;;;;;;;;;;;;;5052780;28;19909;-71
2023/10/10 00:56:54;;;;;;;;;;;;;;;;;;5053727;28;20296;-72
2023/10/10 00:59:20;;;;;;;;;;;;;;;;;;5053377;28;19940;-71
2023/10/10 01:01:49;;;;;;;;;;;;;;;;;;5053350;28;20030;-71
2023/10/10 01:04:28;;;;;;;;;;;;;;;;;;5051612;28;20501;-72
2023/10/10 01:06:54;;;;;;;;;;;;;;;;;;5053389;28;19909;-72
2023/10/10 01:09:20;;;;;;;;;;;;;;;;;;5053355;28;19915;-72
2023/10/10 01:11:48;;;;;;;;;;;;;;;;;;5053183;28;20349;-72
2023/10/10 01:14:18;;;;;;;;;;;;;;;;;;5051030;28;20436;-71
2023/10/10 01:16:47;;;;;;;;;;;;;;;;;;5053137;28;20399;-71
2023/10/10 01:19:14;;;;;;;;;;;;;;;;;;5053133;28;19909;-71
2023/10/10 01:21:50;;;;;;;;;;;;;;;;;;5053221;28;20308;-70
2023/10/10 01:24:17;;;;;;;;;;;;;;;;;;5052355;28;20020;-71
2023/10/10 01:26:50;;;;;;;;;;;;;;;;;;5053125;28;19944;-71
2023/10/10 01:29:26;;;;;;;;;;;;;;;;;;5052069;28;20376;-70
2023/10/10 01:31:51;;;;;;;;;;;;;;;;;;5053190;28;19940;-71
2023/10/10 01:34:51;;;;;;;;;;;;;;;;;;5052197;28;19971;-71
2023/10/10 01:37:22;;;;;;;;;;;;;;;;;;5051468;28;19913;-71
2023/10/10 01:39:48;;;;;;;;;;;;;;;;;;5053828;28;20030;-73
2023/10/10 01:42:16;;;;;;;;;;;;;;;;;;5053295;28;20402;-71
2023/10/10 01:44:42;;;;;;;;;;;;;;;;;;5052623;28;20376;-72
2023/10/10 01:47:19;;;;;;;;;;;;;;;;;;5052962;28;19913;-72
2023/10/10 01:49:45;;;;;;;;;;;;;;;;;;5052825;28;19909;-72
2023/10/10 01:52:17;;;;;;;;;;;;;;;;;;5051967;28;19909;-72
2023/10/10 01:54:45;;;;;;;;;;;;;;;;;;5051967;28;19944;-72
2023/10/10 01:57:21;;;;;;;;;;;;;;;;;;5052530;28;19909;-72
2023/10/10 01:59:47;;;;;;;;;;;;;;;;;;5052744;28;19909;-71
2023/10/10 02:02:13;;;;;;;;;;;;;;;;;;5052264;28;19909;-71
2023/10/10 02:04:39;;;;;;;;;;;;;;;;;;5051735;28;19967;-71
2023/10/10 02:07:22;;;;;;;;;;;;;;;;;;5052374;28;20002;-71
2023/10/10 02:09:53;;;;;;;;;;;;;;;;;;5052354;28;19987;-71
2023/10/10 02:12:22;;;;;;;;;;;;;;;;;;5052347;28;19913;-71
2023/10/10 02:14:48;;;;;;;;;;;;;;;;;;5051393;28;19916;-72
2023/10/10 02:17:26;;;;;;;;;;;;;;;;;;5052126;28;19913;-72
2023/10/10 02:20:19;;;;;;;;;;;;;;;;;;5052282;28;19908;-72
2023/10/10 02:22:49;;;;;;;;;;;;;;;;;;5050724;28;20000;-72
2023/10/10 02:27:55;;;;;;;;;;;;;;;;;;5051949;28;19909;-71
2023/10/10 02:30:34;;;;;;;;;;;;;;;;;;5049924;28;19913;-70
2023/10/10 02:33:00;;;;;;;;;;;;;;;;;;5051717;28;19931;-70
2023/10/10 02:35:27;;;;;;;;;;;;;;;;;;5049307;28;20399;-71
2023/10/10 02:37:54;;;;;;;;;;;;;;;;;;5052225;28;19916;-72
2023/10/10 02:40:30;;;;;;;;;;;;;;;;;;5052108;28;19909;-70
2023/10/10 02:45:44;;;;;;;;;;;;;;;;;;5051287;28;20584;-70
2023/10/10 02:48:20;;;;;;;;;;;;;;;;;;5056822;28;19912;-70
2023/10/10 02:50:45;;;;;;;;;;;;;;;;;;5071726;28;19915;-71
2023/10/10 02:53:14;;;;;;;;;;;;;;;;;;5071508;28;19908;-71
2023/10/10 02:55:50;;;;;;;;;;;;;;;;;;5070029;28;20402;-72
2023/10/10 02:58:22;;;;;;;;;;;;;;;;;;5071788;28;19908;-72
2023/10/10 03:00:48;;;;;;;;;;;;;;;;;;5071623;28;19962;-71
2023/10/10 03:03:20;;;;;;;;;;;;;;;;;;5071192;28;19916;-72
2023/10/10 03:05:54;;;;;;;;;;;;;;;;;;5070072;28;20003;-72
2023/10/10 03:11:01;;;;;;;;;;;;;;;;;;5071633;28;19909;-71
2023/10/10 03:13:47;;;;;;;;;;;;;;;;;;5071222;28;19919;-71
2023/10/10 03:24:50;;;;;;;;;;;;;;;;;;5070575;28;19921;-71
2023/10/10 03:29:49;;;;;;;;;;;;;;;;;;5071385;28;19954;-72
2023/10/10 03:32:47;;;;;;;;;;;;;;;;;;5071468;28;19995;-73
2023/10/10 03:35:20;;;;;;;;;;;;;;;;;;5069965;28;19920;-73
2023/10/10 03:37:54;;;;;;;;;;;;;;;;;;5071301;28;19909;-72
2023/10/10 03:41:24;;;;;;;;;;;;;;;;;;5070408;28;19916;-73
